Time;durP1;ratioP1;P1;durP2;ratioP2;P2;SDS_P1;SDS_P2;PMS_P1;PMS_P2;Temp;Humidity;BMP_temperature;BMP_pressure;BME280_temperature;BME280_humidity;BME280_pressure;Samples;Min_cycle;Max_cycle;Signal;HPM_P1;HPM_P2
2023/10/28 00:01:14;;;;;;;11.18;4.03;;;;;;;11.13;100.00;99245.47;3600516;39;20319;-65
2023/10/28 00:03:40;;;;;;;13.00;4.60;;;;;;;11.12;100.00;99241.09;3600598;39;20040;-64
2023/10/28 00:06:07;;;;;;;9.63;4.03;;;;;;;11.17;100.00;99248.75;3601600;39;20079;-64
2023/10/28 00:08:34;;;;;;;17.98;4.63;;;;;;;11.19;100.00;99244.06;3601715;39;20371;-64
2023/10/28 00:11:04;;;;;;;13.93;4.97;;;;;;;11.23;100.00;99254.44;3602474;39;20051;-63
2023/10/28 00:13:30;;;;;;;14.38;5.55;;;;;;;11.10;100.00;99226.91;3601636;39;20053;-63
2023/10/28 00:15:57;;;;;;;11.40;5.60;;;;;;;10.76;100.00;99168.13;3600322;39;20052;-64
2023/10/28 00:18:22;;;;;;;14.20;4.78;;;;;;;10.86;100.00;99181.59;3600188;39;20397;-64
2023/10/28 00:20:48;;;;;;;13.70;5.07;;;;;;;11.30;100.00;99250.19;3592464;39;20074;-64
2023/10/28 00:23:14;;;;;;;9.75;4.38;;;;;;;11.31;100.00;99245.66;3600158;39;20048;-64
2023/10/28 00:25:41;;;;;;;12.75;4.20;;;;;;;11.35;100.00;99247.97;3600588;39;20055;-65
2023/10/28 00:28:07;;;;;;;12.90;6.47;;;;;;;11.35;100.00;99247.97;3600527;39;20062;-64
2023/10/28 00:30:33;;;;;;;9.63;3.92;;;;;;;11.41;100.00;99248.38;3601244;39;20051;-64
2023/10/28 00:33:00;;;;;;;12.90;3.88;;;;;;;11.33;100.00;99236.47;3601817;39;20092;-64
2023/10/28 00:35:28;;;;;;;13.13;3.80;;;;;;;11.46;100.00;99243.44;3601145;39;20128;-64
2023/10/28 00:37:53;;;;;;;10.63;3.65;;;;;;;11.49;100.00;99248.53;3601826;39;20078;-64
2023/10/28 00:40:20;;;;;;;8.48;3.50;;;;;;;11.45;100.00;99239.03;3599868;39;20433;-63
2023/10/28 00:42:46;;;;;;;8.88;2.88;;;;;;;11.53;100.00;99245.41;3601789;39;20051;-64
2023/10/28 00:45:13;;;;;;;11.02;3.45;;;;;;;11.56;100.00;99249.69;3600895;39;20599;-64
2023/10/28 00:47:43;;;;;;;9.68;3.00;;;;;;;11.58;100.00;99250.41;3601791;39;20388;-64
2023/10/28 00:50:12;;;;;;;8.05;2.83;;;;;;;11.60;100.00;99251.09;3601188;39;20121;-64
2023/10/28 00:52:46;;;;;;;12.38;3.42;;;;;;;11.62;100.00;99257.19;3601658;39;20059;-64
2023/10/28 00:55:13;;;;;;;5.88;2.60;;;;;;;11.64;100.00;99255.22;3597487;39;20111;-64
2023/10/28 00:57:41;;;;;;;8.50;2.80;;;;;;;11.14;99.85;99159.28;3599285;39;20043;-64
2023/10/28 01:00:08;;;;;;;7.40;2.80;;;;;;;11.05;100.00;99144.00;3599717;39;20055;-64
2023/10/28 01:02:40;;;;;;;7.97;2.78;;;;;;;11.70;99.62;99248.41;3600319;39;20364;-64
2023/10/28 01:05:13;;;;;;;6.68;2.63;;;;;;;11.69;99.85;99242.19;3601812;39;20049;-64
2023/10/28 01:07:50;;;;;;;5.65;2.35;;;;;;;11.71;99.67;99247.44;3602415;39;20101;-64
2023/10/28 01:10:33;;;;;;;7.70;2.40;;;;;;;11.72;99.58;99254.50;3599312;39;20136;-63
2023/10/28 01:12:59;;;;;;;6.88;2.53;;;;;;;11.67;99.52;99240.59;3591832;39;20067;-64
2023/10/28 01:15:26;;;;;;;8.50;2.53;;;;;;;11.71;99.31;99244.75;3599014;39;20081;-64
2023/10/28 01:17:53;;;;;;;10.40;2.40;;;;;;;11.73;99.31;99256.19;3601013;39;20055;-64
2023/10/28 01:20:19;;;;;;;4.57;1.98;;;;;;;11.73;98.98;99243.59;3600912;39;20350;-64
2023/10/28 01:22:45;;;;;;;5.55;2.20;;;;;;;11.67;99.01;99244.19;3602492;39;20101;-64
2023/10/28 01:25:11;;;;;;;6.00;1.90;;;;;;;11.77;98.73;99250.41;3598457;39;20189;-64
2023/10/28 01:27:38;;;;;;;6.90;2.40;;;;;;;11.70;98.61;99237.63;3601205;39;20095;-64
2023/10/28 01:30:13;;;;;;;8.10;2.08;;;;;;;11.76;98.20;99251.38;3600866;39;20155;-64
2023/10/28 01:32:42;;;;;;;5.75;2.05;;;;;;;11.77;97.85;99246.88;3599765;39;20055;-64
2023/10/28 01:35:12;;;;;;;4.43;2.08;;;;;;;11.55;98.04;99210.31;3602221;39;20063;-64
2023/10/28 01:37:38;;;;;;;8.50;2.20;;;;;;;11.78;98.13;99248.56;3601324;39;20070;-64
2023/10/28 01:40:12;;;;;;;6.25;2.08;;;;;;;11.26;97.52;99165.41;3600309;39;20059;-63
2023/10/28 01:42:39;;;;;;;5.57;2.05;;;;;;;11.75;97.76;99244.31;3602092;39;20105;-64
2023/10/28 01:45:06;;;;;;;4.18;1.58;;;;;;;11.76;97.85;99248.69;3599704;39;20047;-63
2023/10/28 01:47:31;;;;;;;6.22;2.00;;;;;;;11.73;97.52;99251.66;3601787;39;20047;-64
2023/10/28 01:49:58;;;;;;;10.80;2.05;;;;;;;11.24;97.13;99170.06;3600294;39;20390;-64
2023/10/28 01:52:25;;;;;;;5.25;1.80;;;;;;;11.73;97.41;99248.97;3600120;39;20055;-64
2023/10/28 01:54:51;;;;;;;5.18;1.85;;;;;;;11.73;97.68;99245.44;3601855;39;20063;-63
2023/10/28 01:57:17;;;;;;;5.20;1.98;;;;;;;11.72;97.56;99249.97;3598646;39;20051;-63
2023/10/28 01:59:44;;;;;;;4.60;1.67;;;;;;;11.73;97.27;99245.44;3600427;39;20102;-63
2023/10/28 02:02:10;;;;;;;5.18;1.80;;;;;;;11.71;97.21;99248.28;3601517;39;21329;-63
2023/10/28 02:04:36;;;;;;;3.63;1.65;;;;;;;11.69;96.92;99239.47;3602653;39;20051;-64
2023/10/28 02:07:04;;;;;;;5.13;1.77;;;;;;;11.70;96.75;99235.78;3599623;39;20062;-63
2023/10/28 02:09:33;;;;;;;3.28;1.50;;;;;;;11.69;96.46;99239.47;3590472;39;20394;-63
2023/10/28 02:12:02;;;;;;;5.88;1.70;;;;;;;11.69;96.30;99234.09;3590545;39;20044;-64
2023/10/28 02:14:28;;;;;;;6.55;1.80;;;;;;;11.31;96.54;99167.66;3601185;39;20162;-63
2023/10/28 02:16:55;;;;;;;5.93;1.52;;;;;;;11.67;96.39;99229.84;3594661;39;20051;-64
2023/10/28 02:19:21;;;;;;;5.28;1.70;;;;;;;11.67;96.63;99236.09;3603815;39;20077;-63
2023/10/28 02:21:48;;;;;;;3.70;1.67;;;;;;;11.64;96.91;99231.00;3600821;39;20370;-63
2023/10/28 02:24:14;;;;;;;3.10;1.60;;;;;;;11.67;96.52;99240.59;3600126;39;20066;-64
2023/10/28 02:26:39;;;;;;;4.75;1.35;;;;;;;11.64;96.41;99241.75;3602391;39;20356;-64
2023/10/28 02:29:06;;;;;;;2.65;1.48;;;;;;;11.65;96.25;99235.38;3601544;39;20055;-64
2023/10/28 02:31:32;;;;;;;5.20;1.60;;;;;;;11.64;96.42;99236.38;3603377;39;20047;-63
2023/10/28 02:33:58;;;;;;;1.70;1.50;;;;;;;11.61;96.29;99242.88;3601652;39;20055;-63
2023/10/28 02:36:25;;;;;;;3.70;1.58;;;;;;;11.07;96.45;99144.72;3593208;39;20074;-63
2023/10/28 02:38:50;;;;;;;2.33;1.33;;;;;;;11.57;96.11;99243.28;3603482;39;20303;-63
2023/10/28 02:41:16;;;;;;;5.95;1.73;;;;;;;11.55;96.13;99248.84;3598705;39;20055;-63
2023/10/28 02:43:42;;;;;;;2.67;1.60;;;;;;;11.51;95.96;99235.78;3601240;39;20121;-63
2023/10/28 02:46:07;;;;;;;3.47;1.60;;;;;;;11.50;95.97;99240.31;3599938;39;20074;-64
2023/10/28 02:48:34;;;;;;;13.32;10.00;;;;;;;11.52;96.02;99245.56;3598840;39;20047;-65
2023/10/28 02:51:06;;;;;;;4.97;3.17;;;;;;;11.51;96.14;99251.91;3602675;39;20048;-63
2023/10/28 02:53:33;;;;;;;4.53;1.55;;;;;;;11.51;95.97;99251.91;3600919;39;20059;-63
2023/10/28 02:56:04;;;;;;;4.57;1.20;;;;;;;11.00;96.21;99165.06;3599803;39;20116;-63
2023/10/28 02:58:30;;;;;;;4.43;1.38;;;;;;;11.09;95.76;99188.44;3602530;39;20536;-63
2023/10/28 03:00:57;;;;;;;3.67;1.73;;;;;;;11.48;95.37;99247.69;3603118;39;20155;-63
2023/10/28 03:03:26;;;;;;;2.58;1.67;;;;;;;11.47;96.04;99258.59;3601577;39;20067;-63
2023/10/28 03:05:51;;;;;;;4.15;1.98;;;;;;;11.45;95.53;99263.25;3593309;39;20044;-63
2023/10/28 03:08:19;;;;;;;2.15;1.48;;;;;;;11.42;95.41;99253.63;3601946;39;20168;-63
2023/10/28 03:10:44;;;;;;;3.92;1.88;;;;;;;11.47;95.24;99256.72;3603530;39;20137;-63
2023/10/28 03:13:10;;;;;;;3.08;1.27;;;;;;;11.39;94.74;99243.16;3599671;39;20097;-63
2023/10/28 03:15:36;;;;;;;2.10;1.70;;;;;;;11.42;95.02;99244.69;3602477;39;20047;-63
2023/10/28 03:18:02;;;;;;;4.00;1.77;;;;;;;11.39;94.88;99249.38;3602438;39;20054;-63
2023/10/28 03:20:27;;;;;;;4.95;1.60;;;;;;;11.34;94.45;99246.25;3600766;39;20051;-63
2023/10/28 03:22:53;;;;;;;3.35;1.90;;;;;;;11.33;94.55;99249.94;3600480;39;20357;-62
2023/10/28 03:25:19;;;;;;;5.65;1.90;;;;;;;11.30;94.42;99252.88;3598434;39;20043;-63
2023/10/28 03:27:45;;;;;;;6.15;2.00;;;;;;;11.25;94.81;99247.06;3599482;39;20062;-63
2023/10/28 03:30:12;;;;;;;6.72;2.08;;;;;;;11.20;94.67;99249.34;3590693;39;20074;-63
2023/10/28 03:32:37;;;;;;;3.63;2.00;;;;;;;10.71;94.81;99161.44;3600272;39;20051;-63
2023/10/28 03:35:03;;;;;;;2.28;1.58;;;;;;;11.17;95.01;99241.53;3601334;39;20330;-64
2023/10/28 03:37:31;;;;;;;3.53;1.80;;;;;;;11.15;94.85;99246.19;3594816;39;20115;-63
2023/10/28 03:39:57;;;;;;;1.52;1.40;;;;;;;11.16;95.36;99242.50;3600956;39;20063;-63
2023/10/28 03:42:23;;;;;;;2.97;1.73;;;;;;;11.15;95.55;99241.66;3599195;39;20059;-63
2023/10/28 03:44:48;;;;;;;4.43;1.95;;;;;;;10.87;95.41;99205.63;3602224;39;20059;-63
2023/10/28 03:47:14;;;;;;;3.22;2.28;;;;;;;11.14;95.68;99244.50;3600436;39;20066;-63
2023/10/28 03:49:39;;;;;;;2.45;1.77;;;;;;;11.16;95.47;99245.19;3600104;39;20417;-64
2023/10/28 03:52:05;;;;;;;4.03;1.70;;;;;;;11.08;95.34;99239.66;3601348;39;20047;-64
2023/10/28 03:54:31;;;;;;;4.75;1.63;;;;;;;11.15;95.77;99247.03;3597584;39;20051;-63
2023/10/28 03:56:56;;;;;;;4.50;1.58;;;;;;;11.16;95.37;99245.19;3600555;39;20059;-63
2023/10/28 03:59:22;;;;;;;5.30;1.92;;;;;;;10.76;95.49;99175.34;3602634;39;20378;-63
2023/10/28 04:01:47;;;;;;;3.70;2.05;;;;;;;11.17;95.38;99238.84;3602673;39;20047;-64
2023/10/28 04:04:13;;;;;;;5.72;1.67;;;;;;;11.12;95.03;99233.03;3598912;39;20083;-63
2023/10/28 04:06:40;;;;;;;3.38;1.50;;;;;;;11.17;95.15;99246.91;3602231;39;20062;-63
2023/10/28 04:09:07;;;;;;;3.88;1.80;;;;;;;11.10;95.49;99229.59;3599886;39;20055;-63
2023/10/28 04:11:33;;;;;;;8.32;1.90;;;;;;;11.15;95.36;99240.81;3602162;39;20092;-63
2023/10/28 04:13:58;;;;;;;2.90;1.40;;;;;;;11.16;95.60;99239.81;3600744;39;20047;-64
2023/10/28 04:16:25;;;;;;;5.80;2.10;;;;;;;11.15;95.29;99236.28;3592045;39;20055;-63
2023/10/28 04:18:52;;;;;;;3.65;1.48;;;;;;;10.79;95.02;99181.28;3586070;39;20123;-63
2023/10/28 04:21:18;;;;;;;3.30;1.40;;;;;;;10.69;95.12;99154.38;3591087;39;20044;-64
2023/10/28 04:23:43;;;;;;;4.05;2.30;;;;;;;11.20;95.45;99233.19;3601286;39;20043;-63
2023/10/28 04:26:09;;;;;;;5.00;1.90;;;;;;;11.21;95.16;99228.66;3600863;39;20378;-64
2023/10/28 04:28:34;;;;;;;3.53;1.80;;;;;;;11.23;95.11;99226.69;3602759;39;20055;-63
2023/10/28 04:31:00;;;;;;;3.60;1.63;;;;;;;11.23;95.39;99222.16;3599541;39;20067;-63
2023/10/28 04:33:26;;;;;;;5.20;1.80;;;;;;;11.24;95.06;99218.47;3599446;39;20074;-64
2023/10/28 04:35:53;;;;;;;5.32;2.08;;;;;;;11.24;94.86;99221.16;3593207;39;20055;-63
2023/10/28 04:38:20;;;;;;;6.30;2.25;;;;;;;11.27;94.88;99223.56;3600253;39;20098;-63
2023/10/28 04:40:46;;;;;;;4.10;1.65;;;;;;;11.28;94.80;99224.41;3601415;39;20310;-64
2023/10/28 04:43:11;;;;;;;5.22;1.98;;;;;;;11.30;94.37;99228.69;3599466;39;20098;-63
2023/10/28 04:45:44;;;;;;;4.05;1.42;;;;;;;11.19;94.00;99198.34;3605688;39;20047;-64
2023/10/28 04:48:11;;;;;;;5.78;1.67;;;;;;;11.31;94.21;99216.91;3596200;39;20067;-63
2023/10/28 04:50:37;;;;;;;4.43;2.10;;;;;;;11.28;94.00;99213.66;3603842;39;20112;-63
2023/10/28 04:53:03;;;;;;;4.00;1.98;;;;;;;11.29;93.55;99205.47;3597825;39;20063;-64
2023/10/28 04:55:28;;;;;;;6.55;1.77;;;;;;;11.33;93.58;99211.41;3600560;39;20063;-63
2023/10/28 04:57:54;;;;;;;5.63;1.70;;;;;;;11.35;93.53;99209.41;3599516;39;20054;-63
2023/10/28 05:00:20;;;;;;;4.55;2.13;;;;;;;11.29;93.41;99200.09;3600578;39;20306;-64
2023/10/28 05:02:46;;;;;;;4.70;1.80;;;;;;;11.35;93.28;99202.22;3601528;39;20059;-65
2023/10/28 05:05:13;;;;;;;5.22;1.85;;;;;;;11.37;93.61;99204.75;3598017;39;20060;-65
2023/10/28 05:07:40;;;;;;;3.58;1.55;;;;;;;11.35;93.44;99196.84;3599239;39;20047;-65
2023/10/28 05:10:09;;;;;;;3.10;1.40;;;;;;;11.34;93.27;99184.34;3599614;39;20135;-64
2023/10/28 05:12:38;;;;;;;3.97;1.58;;;;;;;11.39;93.66;99181.28;3600851;39;20054;-63
2023/10/28 05:15:08;;;;;;;2.60;1.77;;;;;;;11.39;93.45;99186.66;3597544;39;20258;-65
2023/10/28 05:17:36;;;;;;;3.75;1.67;;;;;;;11.41;93.65;99195.41;3594531;39;20120;-63
2023/10/28 05:20:08;;;;;;;3.75;1.60;;;;;;;11.43;93.06;99195.28;3596255;39;20279;-63
2023/10/28 05:22:39;;;;;;;5.15;1.98;;;;;;;11.37;93.49;99197.53;3599622;39;20040;-63
2023/10/28 05:25:07;;;;;;;4.05;1.60;;;;;;;11.42;93.19;99204.31;3600534;39;20297;-64
2023/10/28 05:27:33;;;;;;;4.95;1.95;;;;;;;11.25;93.47;99168.22;3601958;39;20039;-64
2023/10/28 05:30:00;;;;;;;6.40;1.95;;;;;;;11.38;93.65;99203.75;3601216;39;20075;-63
2023/10/28 05:32:26;;;;;;;6.90;1.70;;;;;;;11.38;93.41;99210.03;3601234;39;20102;-63
2023/10/28 05:34:52;;;;;;;2.58;1.40;;;;;;;11.38;93.52;99199.25;3596797;39;20310;-63
2023/10/28 05:37:18;;;;;;;5.55;1.80;;;;;;;10.60;93.26;99079.13;3598850;39;20051;-63
2023/10/28 05:39:44;;;;;;;3.22;1.42;;;;;;;10.88;93.28;99124.03;3600132;39;20318;-63
2023/10/28 05:42:14;;;;;;;3.63;1.42;;;;;;;11.03;93.59;99147.81;3605410;39;20356;-63
2023/10/28 05:44:40;;;;;;;3.67;1.50;;;;;;;10.94;93.67;99130.66;3599012;39;20046;-64
2023/10/28 05:47:07;;;;;;;2.70;1.23;;;;;;;11.36;93.99;99205.75;3599157;39;20500;-63
2023/10/28 05:49:33;;;;;;;4.72;2.17;;;;;;;11.34;94.17;99208.56;3603603;39;20055;-63
2023/10/28 05:52:00;;;;;;;4.53;1.77;;;;;;;11.33;94.35;99212.25;3601782;39;20047;-63
2023/10/28 05:54:25;;;;;;;6.05;1.77;;;;;;;11.33;94.29;99217.66;3602231;39;20056;-64
2023/10/28 05:56:51;;;;;;;6.65;1.95;;;;;;;11.33;94.55;99216.81;3604847;39;20289;-64
2023/10/28 05:59:16;;;;;;;4.47;1.73;;;;;;;11.32;94.31;99220.47;3599817;39;20271;-63
2023/10/28 06:01:43;;;;;;;2.78;1.52;;;;;;;11.33;94.52;99222.19;3603382;39;20054;-65
2023/10/28 06:04:09;;;;;;;3.75;1.50;;;;;;;11.25;94.46;99212.09;3600948;39;20063;-65
2023/10/28 06:06:35;;;;;;;3.03;1.40;;;;;;;11.36;94.62;99222.75;3601247;39;20047;-65
2023/10/28 06:09:01;;;;;;;5.05;1.73;;;;;;;11.38;94.60;99228.84;3601826;39;20047;-65
2023/10/28 06:11:27;;;;;;;5.28;1.58;;;;;;;11.34;94.77;99224.72;3601082;39;20074;-65
2023/10/28 06:13:53;;;;;;;5.68;1.90;;;;;;;10.98;94.85;99160.81;3595567;39;20067;-65
2023/10/28 06:16:19;;;;;;;3.05;1.35;;;;;;;11.45;94.49;99228.25;3598084;39;20059;-64
2023/10/28 06:18:45;;;;;;;3.80;1.70;;;;;;;11.43;94.75;99227.56;3602139;39;20044;-65
2023/10/28 06:21:14;;;;;;;3.00;2.05;;;;;;;11.48;94.86;99236.94;3600873;39;20187;-65
2023/10/28 06:23:40;;;;;;;2.90;1.70;;;;;;;11.50;95.24;99243.00;3603495;39;20050;-65
2023/10/28 06:26:07;;;;;;;4.95;1.83;;;;;;;11.55;95.19;99242.59;3601653;39;20051;-65
2023/10/28 06:28:37;;;;;;;6.22;1.88;;;;;;;11.55;95.41;99243.44;3600748;39;20091;-65
2023/10/28 06:31:03;;;;;;;3.95;1.33;;;;;;;11.57;95.46;99244.13;3590870;39;20105;-65
2023/10/28 06:33:29;;;;;;;4.63;1.30;;;;;;;11.60;95.66;99249.25;3599536;39;20305;-65
2023/10/28 06:35:55;;;;;;;9.45;1.65;;;;;;;11.61;95.91;99242.03;3601883;39;20062;-64
2023/10/28 06:38:25;;;;;;;5.88;1.60;;;;;;;11.59;96.42;99233.25;3600930;39;20063;-64
2023/10/28 06:40:51;;;;;;;5.30;2.05;;;;;;;11.10;96.73;99152.50;3602301;39;20054;-63
2023/10/28 06:43:17;;;;;;;3.85;1.60;;;;;;;11.58;97.43;99231.56;3602037;39;20052;-65
2023/10/28 06:45:43;;;;;;;4.97;1.75;;;;;;;11.59;97.46;99233.25;3598516;39;20392;-64
2023/10/28 06:48:10;;;;;;;3.95;1.63;;;;;;;11.09;98.02;99152.63;3601516;39;20068;-64
2023/10/28 06:50:36;;;;;;;4.40;1.50;;;;;;;11.57;98.33;99229.84;3599688;39;20063;-65
2023/10/28 06:53:02;;;;;;;4.78;1.73;;;;;;;11.58;98.02;99242.31;3600830;39;20057;-64
2023/10/28 06:55:27;;;;;;;3.08;1.45;;;;;;;11.57;98.32;99238.75;3602182;39;20074;-64
2023/10/28 06:57:54;;;;;;;2.90;1.65;;;;;;;11.57;98.90;99240.59;3602515;39;20409;-63
2023/10/28 07:00:24;;;;;;;3.60;1.60;;;;;;;11.59;98.83;99244.00;3599738;39;20059;-64
2023/10/28 07:02:49;;;;;;;2.75;1.40;;;;;;;11.47;98.91;99212.84;3599562;39;20280;-65
2023/10/28 07:05:15;;;;;;;3.67;1.40;;;;;;;11.62;98.63;99238.34;3601140;39;20082;-65
2023/10/28 07:07:41;;;;;;;4.38;1.63;;;;;;;11.63;98.62;99234.66;3600089;39;20058;-65
2023/10/28 07:10:07;;;;;;;3.30;1.52;;;;;;;11.62;98.80;99228.44;3601117;39;20078;-63
2023/10/28 07:12:33;;;;;;;4.00;1.55;;;;;;;11.69;98.78;99235.94;3603790;39;20083;-63
2023/10/28 07:15:00;;;;;;;4.13;1.80;;;;;;;11.18;99.12;99145.56;3601780;39;20047;-63
2023/10/28 07:17:26;;;;;;;6.07;2.20;;;;;;;11.71;98.95;99237.50;3602315;39;20310;-63
2023/10/28 07:19:52;;;;;;;4.82;1.63;;;;;;;11.76;99.10;99245.16;3600929;39;20119;-65
2023/10/28 07:22:22;;;;;;;6.72;2.13;;;;;;;11.80;98.88;99252.81;3598275;39;20040;-65
2023/10/28 07:24:49;;;;;;;5.35;2.13;;;;;;;11.81;98.84;99251.81;3598873;39;20080;-64
2023/10/28 07:27:16;;;;;;;5.65;2.10;;;;;;;11.82;98.28;99256.19;3591372;39;20054;-64
2023/10/28 07:29:41;;;;;;;7.43;1.85;;;;;;;11.80;98.32;99242.06;3600383;39;20099;-65
2023/10/28 07:32:09;;;;;;;8.40;1.90;;;;;;;11.84;98.37;99253.38;3599307;39;20352;-65
2023/10/28 07:34:35;;;;;;;6.22;2.10;;;;;;;11.89;98.06;99255.66;3602675;39;20305;-64
2023/10/28 07:37:04;;;;;;;4.30;1.75;;;;;;;11.92;98.20;99260.78;3601917;39;20419;-64
2023/10/28 07:39:30;;;;;;;4.22;1.52;;;;;;;11.94;98.02;99261.50;3603103;39;20360;-65
2023/10/28 07:41:56;;;;;;;4.85;2.10;;;;;;;11.97;97.82;99267.44;3600812;39;20082;-65
2023/10/28 07:44:22;;;;;;;4.88;2.00;;;;;;;12.03;98.36;99271.41;3607404;39;20417;-65
2023/10/28 07:46:48;;;;;;;5.05;2.00;;;;;;;12.11;98.38;99266.13;3606949;39;20062;-64
2023/10/28 07:49:14;;;;;;;6.95;1.77;;;;;;;12.19;98.03;99274.38;3605555;39;20070;-65
2023/10/28 07:51:40;;;;;;;4.05;1.50;;;;;;;12.21;97.40;99277.78;3602851;39;20058;-65
2023/10/28 07:54:06;;;;;;;4.65;1.60;;;;;;;12.28;96.82;99283.44;3601589;39;20146;-65
2023/10/28 07:56:32;;;;;;;6.88;1.58;;;;;;;12.31;96.63;99286.69;3602007;39;20043;-65
2023/10/28 07:59:02;;;;;;;5.28;1.70;;;;;;;12.34;96.10;99282.00;3600448;39;20378;-65
2023/10/28 08:01:29;;;;;;;5.43;1.65;;;;;;;12.39;95.75;99285.13;3601958;39;20163;-64
2023/10/28 08:03:56;;;;;;;4.28;1.33;;;;;;;11.96;95.08;99219.97;3600100;39;20058;-65
2023/10/28 08:06:23;;;;;;;6.03;1.80;;;;;;;12.07;95.28;99232.41;3596800;39;20056;-65
2023/10/28 08:08:48;;;;;;;5.57;1.58;;;;;;;12.50;94.70;99293.06;3602194;39;20406;-65
2023/10/28 08:11:16;;;;;;;8.10;1.90;;;;;;;12.55;94.33;99297.00;3605514;39;20065;-65
2023/10/28 08:13:42;;;;;;;7.45;1.58;;;;;;;12.60;94.14;99309.22;3607346;39;20055;-65
2023/10/28 08:16:09;;;;;;;5.05;1.65;;;;;;;12.60;93.77;99293.88;3601027;39;20059;-65
2023/10/28 08:18:36;;;;;;;5.43;1.70;;;;;;;12.62;94.51;99294.56;3600848;39;20059;-65
2023/10/28 08:21:01;;;;;;;4.43;1.40;;;;;;;12.70;94.51;99300.09;3600910;39;20283;-65
2023/10/28 08:23:30;;;;;;;6.25;1.60;;;;;;;12.74;93.98;99298.78;3602346;39;20120;-65
2023/10/28 08:25:57;;;;;;;8.80;2.08;;;;;;;12.30;93.37;99216.78;3601339;39;20056;-63
2023/10/28 08:28:23;;;;;;;6.32;1.48;;;;;;;12.81;93.09;99315.22;3600636;39;20056;-63
2023/10/28 08:30:48;;;;;;;7.35;1.60;;;;;;;12.31;93.22;99224.72;3601600;39;20059;-63
2023/10/28 08:33:14;;;;;;;9.63;2.03;;;;;;;12.81;93.70;99306.28;3602280;39;20088;-63
2023/10/28 08:35:40;;;;;;;6.15;1.95;;;;;;;12.72;93.42;99295.41;3601295;39;20074;-63
2023/10/28 08:38:05;;;;;;;4.93;1.70;;;;;;;12.54;92.49;99251.31;3601005;39;20068;-63
2023/10/28 08:40:34;;;;;;;6.03;2.03;;;;;;;12.91;92.93;99318.78;3604005;39;20058;-64
2023/10/28 08:43:00;;;;;;;5.57;2.10;;;;;;;12.95;93.24;99316.63;3602375;39;20074;-62
2023/10/28 08:45:29;;;;;;;7.35;1.73;;;;;;;12.97;92.87;99317.31;3602246;39;20063;-63
2023/10/28 08:47:58;;;;;;;6.78;2.35;;;;;;;12.66;92.80;99260.09;3603633;39;20057;-63
2023/10/28 08:50:27;;;;;;;6.15;1.88;;;;;;;13.04;92.09;99331.09;3595786;39;20068;-63
2023/10/28 08:52:57;;;;;;;5.28;1.80;;;;;;;13.06;92.37;99326.38;3607313;39;20050;-63
2023/10/28 08:55:25;;;;;;;8.40;2.00;;;;;;;13.07;91.56;99328.94;3605854;39;20055;-64
2023/10/28 08:57:52;;;;;;;5.10;1.45;;;;;;;13.11;91.35;99327.63;3600500;39;20043;-63
2023/10/28 09:00:22;;;;;;;8.52;2.05;;;;;;;13.16;91.29;99344.25;3602818;39;20448;-63
2023/10/28 09:02:49;;;;;;;4.57;1.98;;;;;;;13.24;91.53;99336.28;3602110;39;20051;-63
2023/10/28 09:05:16;;;;;;;5.95;1.60;;;;;;;13.35;90.15;99337.06;3600151;39;20064;-62
2023/10/28 09:07:43;;;;;;;4.00;2.03;;;;;;;13.40;90.57;99337.50;3600592;39;20055;-64
2023/10/28 09:10:11;;;;;;;10.30;2.10;;;;;;;13.47;90.89;99331.31;3600290;39;20063;-64
2023/10/28 09:12:37;;;;;;;6.07;2.20;;;;;;;13.53;88.88;99331.75;3598619;39;20068;-63
2023/10/28 09:15:03;;;;;;;5.90;1.95;;;;;;;13.72;88.08;99345.13;3600986;39;20116;-63
2023/10/28 09:17:29;;;;;;;9.82;1.92;;;;;;;13.87;89.24;99340.06;3601708;39;20086;-63
2023/10/28 09:19:56;;;;;;;6.18;2.13;;;;;;;14.02;87.37;99335.84;3601509;39;20061;-63
2023/10/28 09:22:24;;;;;;;8.60;2.20;;;;;;;14.14;85.37;99350.81;3603610;39;20309;-65
2023/10/28 09:24:54;;;;;;;4.05;1.73;;;;;;;14.26;84.99;99343.31;3601882;39;20123;-63
2023/10/28 09:27:21;;;;;;;4.18;1.20;;;;;;;14.37;83.26;99344.94;3601559;39;20087;-65
2023/10/28 09:29:46;;;;;;;6.55;1.67;;;;;;;14.33;83.51;99348.94;3601503;39;20069;-65
2023/10/28 09:32:13;;;;;;;5.93;1.67;;;;;;;14.35;84.31;99342.38;3602129;39;20055;-65
2023/10/28 09:34:41;;;;;;;8.10;1.83;;;;;;;14.35;81.98;99357.75;3602923;39;20047;-66
2023/10/28 09:37:10;;;;;;;4.30;1.60;;;;;;;14.25;81.23;99351.59;3601225;39;20459;-65
2023/10/28 09:39:36;;;;;;;7.70;1.58;;;;;;;14.24;82.53;99356.16;3603193;39;20058;-65
2023/10/28 09:42:06;;;;;;;6.70;2.08;;;;;;;13.83;81.94;99293.59;3601319;39;20055;-66
2023/10/28 09:44:34;;;;;;;5.28;1.55;;;;;;;14.15;81.84;99347.09;3601536;39;20051;-62
2023/10/28 09:47:04;;;;;;;4.85;1.60;;;;;;;14.13;81.69;99343.69;3601397;39;20040;-63
2023/10/28 09:49:31;;;;;;;7.13;1.92;;;;;;;14.16;82.07;99353.34;3600381;39;20439;-62
2023/10/28 09:52:10;;;;;;;10.02;2.13;;;;;;;14.20;81.14;99345.78;3600998;39;20059;-63
2023/10/28 09:54:41;;;;;;;8.30;2.10;;;;;;;14.24;80.32;99352.56;3602135;39;20424;-62
2023/10/28 09:57:10;;;;;;;6.88;1.67;;;;;;;14.22;80.83;99332.97;3601607;39;20067;-62
2023/10/28 09:59:44;;;;;;;6.10;1.88;;;;;;;14.44;80.35;99339.75;3603309;39;20395;-63
2023/10/28 10:02:28;;;;;;;;;;;;;;;14.76;79.97;99344.59;3602995;39;20055;-64
2023/10/28 10:05:16;;;;;;;3.88;1.65;;;;;;;15.04;77.48;99348.84;3602074;39;19939;-64
2023/10/28 10:07:44;;;;;;;3.30;1.40;;;;;;;15.32;76.10;99333.28;3600083;39;20054;-63
2023/10/28 10:10:13;;;;;;;5.65;1.52;;;;;;;15.63;73.02;99337.28;3596970;39;20115;-63
2023/10/28 10:12:40;;;;;;;4.38;1.30;;;;;;;15.95;71.54;99359.09;3600798;39;20055;-64
2023/10/28 10:15:10;;;;;;;6.25;1.80;;;;;;;16.05;69.02;99352.66;3601439;39;20137;-63
2023/10/28 10:18:07;;;;;;;5.32;2.30;;;;;;;16.30;68.75;99362.56;3603034;39;20103;-64
2023/10/28 10:20:35;;;;;;;5.72;1.70;;;;;;;15.99;67.47;99306.25;3602301;39;20483;-63
2023/10/28 10:23:03;;;;;;;6.95;2.05;;;;;;;16.17;66.70;99373.03;3601860;39;20059;-63
2023/10/28 10:25:43;;;;;;;4.00;1.60;;;;;;;15.62;66.53;99308.50;3601881;39;20055;-62
2023/10/28 10:28:19;;;;;;;7.65;1.77;;;;;;;15.87;67.01;99379.91;3602104;39;20099;-63
2023/10/28 10:30:45;;;;;;;4.07;1.50;;;;;;;15.72;68.31;99375.09;3602845;39;20052;-62
2023/10/28 10:33:12;;;;;;;5.85;1.60;;;;;;;15.62;68.76;99368.94;3602036;39;20047;-64
2023/10/28 10:35:38;;;;;;;3.40;1.60;;;;;;;15.60;70.10;99375.53;3603428;39;20047;-65
2023/10/28 10:38:05;;;;;;;4.47;1.75;;;;;;;15.56;68.44;99369.59;3600094;39;21150;-66
2023/10/28 10:40:34;;;;;;;5.40;1.67;;;;;;;15.51;68.78;99367.38;3600403;39;20067;-65
2023/10/28 10:43:10;;;;;;;6.10;1.50;;;;;;;15.43;68.06;99372.75;3599817;39;20086;-65
2023/10/28 10:45:37;;;;;;;5.40;1.60;;;;;;;15.25;69.14;99353.84;3601858;39;20061;-66
2023/10/28 10:48:07;;;;;;;5.07;1.58;;;;;;;15.31;69.34;99366.75;3602179;39;20055;-65
2023/10/28 10:50:35;;;;;;;5.07;2.20;;;;;;;15.50;69.81;99364.81;3603857;39;20420;-64
2023/10/28 10:53:03;;;;;;;9.13;3.33;;;;;;;15.63;68.02;99375.19;3602046;39;20059;-64
2023/10/28 10:55:30;;;;;;;8.73;2.13;;;;;;;15.80;67.64;99368.03;3600210;39;20055;-64
2023/10/28 10:57:56;;;;;;;6.18;2.17;;;;;;;15.96;67.08;99366.22;3598363;39;20119;-64
2023/10/28 11:00:23;;;;;;;6.20;2.45;;;;;;;16.14;66.64;99365.22;3599586;39;20059;-65
2023/10/28 11:02:50;;;;;;;6.88;1.92;;;;;;;16.28;65.27;99370.00;3601318;39;20044;-64
2023/10/28 11:05:17;;;;;;;5.80;1.70;;;;;;;16.30;64.70;99368.00;3602660;39;20081;-63
2023/10/28 11:07:45;;;;;;;6.32;2.45;;;;;;;16.33;66.18;99348.63;3601954;39;20046;-64
2023/10/28 11:10:12;;;;;;;6.38;2.28;;;;;;;15.97;65.26;99264.91;3599773;39;20051;-63
2023/10/28 11:12:39;;;;;;;7.80;2.00;;;;;;;16.79;64.30;99349.03;3599785;39;20417;-64
2023/10/28 11:15:06;;;;;;;10.25;2.38;;;;;;;17.08;63.18;99347.63;3592931;39;20062;-64
2023/10/28 11:17:32;;;;;;;8.65;1.98;;;;;;;17.15;61.68;99335.03;3602461;39;20055;-64
2023/10/28 11:20:03;;;;;;;9.13;1.85;;;;;;;17.23;59.86;99351.31;3600684;39;20074;-64
2023/10/28 11:22:30;;;;;;;9.02;2.60;;;;;;;17.27;59.86;99362.69;3603128;39;20148;-64
2023/10/28 11:24:57;;;;;;;8.32;2.92;;;;;;;17.53;58.81;99362.41;3599170;39;20060;-63
2023/10/28 11:27:27;;;;;;;9.27;2.28;;;;;;;17.54;59.00;99350.56;3598579;39;20319;-64
2023/10/28 11:29:56;;;;;;;8.07;2.03;;;;;;;17.67;58.08;99350.00;3598760;39;20055;-65
2023/10/28 11:32:24;;;;;;;10.63;2.38;;;;;;;17.57;58.54;99358.31;3600443;39;20340;-64